Date,TemperatureHighF,TemperatureAvgF,TemperatureLowF,DewpointHighF,DewpointAvgF,DewpointLowF,HumidityHigh,HumidityAvg,HumidityLow,PressureMaxIn,PressureMinIn,WindSpeedMaxMPH,WindSpeedAvgMPH,GustSpeedMaxMPH,PrecipitationSumIn
2013-9-1,59,51,45,44,43,41,88,75,58,30.44,30.35,14,7,17,0.00
2013-9-2,58,48,34,46,43,32,100,83,64,30.43,30.24,16,6,16,0.00
2013-9-3,68,52,36,49,42,33,95,73,37,30.22,29.91,14,5,16,0.00
2013-9-4,52,47,42,46,40,32,100,78,60,30.06,29.59,26,10,27,1.00
2013-9-5,56,45,38,43,38,29,100,77,40,30.14,30.04,17,6,20,0.20
2013-9-6,71,50,33,46,38,31,100,70,31,30.02,29.74,10,2,13,0.00
2013-9-7,70,56,39,48,38,30,94,56,26,29.75,29.47,13,3,18,0.00
2013-9-8,62,52,41,48,41,36,92,67,50,29.63,29.45,17,5,17,0.00
2013-9-9,62,50,41,43,38,32,84,65,47,29.60,29.41,18,5,18,0.00
2013-9-10,75,57,40,44,35,29,75,49,24,29.61,29.03,32,6,34,1.87
2013-9-11,76,62,50,62,50,42,92,68,35,29.28,29.09,17,5,27,0.20
2013-9-12,66,55,43,43,38,22,91,58,23,29.58,29.18,17,6,20,0.00
2013-9-13,68,51,37,38,31,15,90,53,16,29.56,29.42,12,3,16,0.00
2013-9-14,64,50,37,44,38,28,90,65,37,29.51,29.35,14,4,15,0.00
2013-9-15,56,47,37,39,30,24,85,57,33,29.87,29.57,24,8,30,0.13
2013-9-16,64,49,32,46,38,29,99,69,31,29.88,29.69,11,4,14,0.00
2013-9-17,56,48,37,43,36,29,100,69,39,30.17,29.88,24,6,27,0.15
2013-9-18,60,47,32,45,37,30,100,71,49,30.15,30.00,15,5,16,0.00
2013-9-19,68,51,38,49,40,28,94,70,34,29.99,29.64,15,4,19,0.02
2013-9-20,63,53,45,50,46,40,96,78,58,29.61,29.50,14,4,14,0.00
2013-9-21,63,56,51,58,50,43,100,81,56,29.57,29.49,7,2,9,0.14
2013-9-22,54,51,48,53,50,47,100,99,96,29.58,29.44,11,4,17,0.39
2013-9-23,66,54,48,57,51,48,100,88,63,29.99,29.52,10,3,10,0.00
2013-9-24,60,52,48,51,47,43,100,83,60,30.11,30.00,16,6,17,0.00
2013-9-25,52,49,46,49,46,43,100,91,82,29.99,29.54,15,5,16,0.11
2013-9-26,71,55,47,52,48,41,99,82,36,29.63,29.38,19,8,21,0.14
2013-9-27,61,52,39,52,46,39,100,84,59,29.63,29.15,24,6,27,0.02
2013-9-28,65,53,44,49,46,41,97,78,51,29.37,29.05,17,5,19,0.04
2013-9-29,63,50,46,50,46,38,100,86,44,29.50,29.38,14,4,14,0.07
2013-9-30,64,52,48,50,46,43,92,80,49,29.77,29.49,12,4,13,0.00